createdAt,value
2018-03-29T00:01:13.391Z,10.07
2018-03-29T00:03:41.621Z,9.67
2018-03-29T00:06:09.090Z,9.10
2018-03-29T00:08:36.547Z,8.40
2018-03-29T00:11:04.010Z,7.50
2018-03-29T00:13:31.482Z,7.00
2018-03-29T00:15:58.947Z,7.20
2018-03-29T00:18:26.409Z,8.33
2018-03-29T00:20:53.877Z,9.07
2018-03-29T00:23:22.106Z,8.93
2018-03-29T00:25:49.643Z,10.37
2018-03-29T00:28:17.054Z,11.50
2018-03-29T00:30:44.526Z,11.37
2018-03-29T00:33:12.767Z,12.27
2018-03-29T00:35:40.242Z,13.10
2018-03-29T00:38:07.712Z,12.83
2018-03-29T00:40:35.174Z,13.60
2018-03-29T00:43:02.647Z,14.77
2018-03-29T00:45:30.125Z,13.30
2018-03-29T00:47:57.598Z,14.00
2018-03-29T00:50:25.069Z,13.43
2018-03-29T00:52:52.533Z,11.90
2018-03-29T00:55:20.012Z,12.50
2018-03-29T00:57:47.484Z,12.33
2018-03-29T01:00:15.726Z,12.30
2018-03-29T01:02:43.239Z,10.00
2018-03-29T01:05:10.683Z,9.00
2018-03-29T01:07:38.913Z,8.03
2018-03-29T01:10:06.389Z,8.00
2018-03-29T01:12:33.847Z,7.13
2018-03-29T01:15:01.310Z,7.10
2018-03-29T01:17:28.791Z,7.43
2018-03-29T01:19:57.046Z,6.50
2018-03-29T01:22:24.507Z,6.93
2018-03-29T01:24:51.974Z,7.17
2018-03-29T01:27:20.204Z,6.53
2018-03-29T01:29:50.620Z,6.80
2018-03-29T01:32:30.119Z,5.83
2018-03-29T01:34:58.361Z,6.70
2018-03-29T01:37:25.827Z,6.53
2018-03-29T01:39:53.292Z,5.77
2018-03-29T01:42:20.750Z,6.10
2018-03-29T01:44:48.210Z,6.33
2018-03-29T01:47:15.674Z,5.30
2018-03-29T01:49:43.138Z,5.10
2018-03-29T01:52:11.389Z,5.50
2018-03-29T01:54:38.846Z,5.47
2018-03-29T01:57:06.301Z,6.27
2018-03-29T01:59:33.767Z,5.67
2018-03-29T02:02:01.248Z,6.20
2018-03-29T02:04:29.482Z,6.43
2018-03-29T02:06:56.953Z,6.03
2018-03-29T02:09:24.423Z,7.20
2018-03-29T02:11:51.879Z,7.50
2018-03-29T02:14:19.329Z,8.10
2018-03-29T02:16:46.808Z,6.90
2018-03-29T02:19:14.258Z,7.10
2018-03-29T02:21:41.726Z,6.33
2018-03-29T02:24:09.955Z,7.17
2018-03-29T02:26:37.413Z,6.30
2018-03-29T02:29:04.891Z,5.93
2018-03-29T02:31:32.389Z,8.03
2018-03-29T02:34:00.624Z,6.77
2018-03-29T02:36:28.081Z,6.23
2018-03-29T02:38:55.535Z,6.50
2018-03-29T02:41:22.998Z,6.40
2018-03-29T02:43:50.454Z,6.03
2018-03-29T02:46:17.939Z,6.07
2018-03-29T02:48:45.405Z,4.97
2018-03-29T02:51:13.636Z,4.33
2018-03-29T02:53:41.098Z,4.70
2018-03-29T02:56:08.603Z,4.20
2018-03-29T02:58:36.844Z,4.40
2018-03-29T03:01:04.317Z,4.30
2018-03-29T03:03:31.776Z,4.07
2018-03-29T03:05:59.310Z,4.40
2018-03-29T03:08:26.759Z,3.80
2018-03-29T03:10:54.249Z,3.87
2018-03-29T03:13:21.715Z,3.43
2018-03-29T03:15:49.187Z,3.53
2018-03-29T03:18:17.424Z,3.10
2018-03-29T03:20:44.911Z,4.20
2018-03-29T03:23:12.372Z,2.60
2018-03-29T03:25:39.839Z,3.07
2018-03-29T03:28:08.076Z,3.20
2018-03-29T03:30:35.555Z,3.10
2018-03-29T03:33:03.020Z,3.17
2018-03-29T03:35:30.491Z,3.00
2018-03-29T03:37:58.723Z,2.70
2018-03-29T03:40:26.191Z,2.70
2018-03-29T03:42:53.659Z,2.40
2018-03-29T03:45:21.135Z,2.53
2018-03-29T03:47:50.194Z,2.57
2018-03-29T03:50:17.659Z,2.83
2018-03-29T03:52:45.128Z,2.10
2018-03-29T03:55:12.615Z,3.33
2018-03-29T03:57:40.858Z,1.80
2018-03-29T04:00:08.362Z,2.60
2018-03-29T04:02:35.836Z,2.50
2018-03-29T04:05:03.315Z,2.80
2018-03-29T04:07:30.793Z,3.07
2018-03-29T04:09:58.255Z,2.80
2018-03-29T04:12:25.736Z,2.97
2018-03-29T04:14:53.979Z,2.67
2018-03-29T04:17:21.451Z,2.80
2018-03-29T04:19:48.932Z,2.40
2018-03-29T04:22:17.169Z,2.70
2018-03-29T04:24:44.643Z,2.47
2018-03-29T04:27:12.114Z,2.30
2018-03-29T04:29:40.340Z,2.23
2018-03-29T04:32:07.851Z,2.20
2018-03-29T04:34:35.425Z,2.67
2018-03-29T04:37:03.689Z,2.07
2018-03-29T04:39:31.911Z,2.87
2018-03-29T04:41:59.392Z,2.83
2018-03-29T04:44:26.864Z,2.20
2018-03-29T04:46:54.335Z,2.60
2018-03-29T04:49:21.797Z,3.07
2018-03-29T04:51:49.272Z,2.87
2018-03-29T04:54:17.502Z,3.10
2018-03-29T04:56:44.971Z,3.10
2018-03-29T04:59:12.441Z,3.87
2018-03-29T05:01:39.912Z,3.10
2018-03-29T05:04:08.148Z,3.33
2018-03-29T05:06:35.641Z,3.63
2018-03-29T05:09:03.875Z,4.07
2018-03-29T05:11:31.353Z,4.70
2018-03-29T05:13:58.811Z,4.07
2018-03-29T05:16:26.284Z,3.90
2018-03-29T05:18:53.748Z,4.50
2018-03-29T05:21:22.000Z,4.07
2018-03-29T05:23:49.472Z,5.10
2018-03-29T05:26:16.951Z,5.33
2018-03-29T05:28:45.209Z,4.53
2018-03-29T05:31:12.663Z,5.30
2018-03-29T05:33:40.131Z,5.13
2018-03-29T05:36:07.624Z,4.57
2018-03-29T05:38:35.093Z,5.03
2018-03-29T05:41:02.575Z,5.20
2018-03-29T05:43:30.035Z,4.77
2018-03-29T05:45:57.523Z,5.93
2018-03-29T05:48:24.984Z,4.93
2018-03-29T05:50:53.231Z,5.90
2018-03-29T05:53:20.708Z,5.47
2018-03-29T05:55:48.163Z,5.60
2018-03-29T05:58:15.639Z,4.70
2018-03-29T06:00:43.864Z,5.07
2018-03-29T06:03:11.389Z,5.60
2018-03-29T06:05:38.814Z,6.00
2018-03-29T06:08:06.287Z,5.93
2018-03-29T06:10:34.525Z,6.30
2018-03-29T06:13:01.999Z,6.93
2018-03-29T06:15:32.400Z,6.67
2018-03-29T06:18:00.682Z,5.87
2018-03-29T06:20:28.152Z,6.17
2018-03-29T06:22:55.632Z,7.10
2018-03-29T06:25:23.104Z,6.10
2018-03-29T06:27:51.348Z,5.90
2018-03-29T06:30:18.818Z,6.60
2018-03-29T06:32:46.288Z,5.00
2018-03-29T06:35:14.511Z,5.27
2018-03-29T06:37:41.987Z,7.80
2018-03-29T06:40:09.452Z,4.77
2018-03-29T06:42:36.927Z,4.83
2018-03-29T06:45:04.389Z,5.30
2018-03-29T06:47:31.866Z,4.77
2018-03-29T06:50:00.099Z,5.60
2018-03-29T06:52:27.577Z,5.03
2018-03-29T06:54:55.041Z,5.37
2018-03-29T06:57:22.511Z,5.40
2018-03-29T06:59:50.737Z,4.27
2018-03-29T07:02:18.220Z,4.30
2018-03-29T07:04:45.682Z,4.30
2018-03-29T07:07:13.166Z,4.53
2018-03-29T07:09:41.399Z,4.43
2018-03-29T07:12:08.875Z,4.87
2018-03-29T07:14:36.350Z,4.30
2018-03-29T07:17:04.596Z,5.93
2018-03-29T07:19:32.069Z,5.23
2018-03-29T07:21:59.545Z,4.40
2018-03-29T07:24:27.771Z,3.67
2018-03-29T07:26:55.254Z,4.20
2018-03-29T07:29:22.727Z,3.97
2018-03-29T07:31:50.198Z,3.60
2018-03-29T07:34:18.431Z,4.50
2018-03-29T07:36:45.895Z,3.90
2018-03-29T07:39:13.364Z,4.53
2018-03-29T07:41:40.839Z,4.93
2018-03-29T07:44:08.323Z,5.43
2018-03-29T07:46:35.804Z,5.80
2018-03-29T07:49:03.277Z,6.43
2018-03-29T07:51:30.783Z,6.20
2018-03-29T07:53:59.010Z,6.03
2018-03-29T07:56:26.470Z,5.90
2018-03-29T07:58:53.956Z,7.17
2018-03-29T08:01:21.427Z,6.63
2018-03-29T08:03:49.687Z,6.70
2018-03-29T08:06:17.143Z,6.17
2018-03-29T08:08:44.623Z,7.17
2018-03-29T08:11:12.100Z,7.40
2018-03-29T08:13:40.336Z,6.53
2018-03-29T08:16:07.827Z,6.93
2018-03-29T08:18:36.063Z,6.50
2018-03-29T08:21:03.531Z,6.60
2018-03-29T08:23:31.015Z,7.43
2018-03-29T08:25:59.262Z,6.50
2018-03-29T08:28:26.733Z,7.17
2018-03-29T08:30:54.196Z,7.10
2018-03-29T08:33:21.913Z,6.73
2018-03-29T08:35:49.393Z,6.73
2018-03-29T08:38:16.898Z,7.23
2018-03-29T08:40:44.361Z,7.27
2018-03-29T08:43:11.834Z,8.27
2018-03-29T08:45:39.302Z,8.30
2018-03-29T08:48:06.822Z,8.27
2018-03-29T08:50:34.244Z,8.77
2018-03-29T08:53:01.724Z,8.40
2018-03-29T08:55:29.191Z,8.73
2018-03-29T08:57:56.662Z,8.67
2018-03-29T09:00:24.896Z,9.33
2018-03-29T09:02:53.205Z,11.00
2018-03-29T09:05:20.663Z,11.30
2018-03-29T09:07:48.946Z,9.10
2018-03-29T09:10:17.213Z,10.90
2018-03-29T09:12:44.693Z,11.80
2018-03-29T09:15:12.177Z,12.20
2018-03-29T09:17:39.667Z,12.90
2018-03-29T09:20:07.140Z,12.47
2018-03-29T09:22:34.626Z,13.27
2018-03-29T09:25:02.859Z,14.80
2018-03-29T09:27:30.351Z,14.43
2018-03-29T09:29:58.582Z,13.50
2018-03-29T09:32:26.061Z,16.57
2018-03-29T09:34:53.531Z,17.70
2018-03-29T09:37:21.775Z,18.70
2018-03-29T09:39:49.246Z,18.60
2018-03-29T09:42:16.714Z,18.03
2018-03-29T09:44:44.179Z,19.37
2018-03-29T09:47:11.675Z,18.53
2018-03-29T09:49:39.138Z,19.20
2018-03-29T09:52:06.627Z,19.17
2018-03-29T09:54:34.103Z,16.80
2018-03-29T09:57:01.572Z,17.30
2018-03-29T09:59:29.051Z,16.67
2018-03-29T10:01:56.522Z,18.30
2018-03-29T10:04:24.427Z,18.27
2018-03-29T10:07:00.057Z,17.03
2018-03-29T10:09:27.572Z,19.20
2018-03-29T10:12:00.688Z,16.90
2018-03-29T10:14:28.168Z,17.47
2018-03-29T10:16:55.636Z,17.40
2018-03-29T10:19:23.119Z,18.83
2018-03-29T10:21:50.653Z,17.27
2018-03-29T10:24:18.942Z,16.60
2018-03-29T10:26:46.422Z,18.27
2018-03-29T10:29:15.508Z,16.83
2018-03-29T10:31:43.039Z,17.13
2018-03-29T10:34:10.519Z,17.53
2018-03-29T10:36:38.835Z,17.87
2018-03-29T10:39:12.119Z,18.20
2018-03-29T10:41:39.603Z,19.17
2018-03-29T10:44:07.096Z,16.90
2018-03-29T10:46:34.622Z,18.37
2018-03-29T10:49:02.087Z,16.93
2018-03-29T10:51:29.565Z,19.03
2018-03-29T10:53:57.048Z,18.60
2018-03-29T10:56:24.522Z,18.70
2018-03-29T10:58:52.005Z,17.40
2018-03-29T11:01:20.241Z,17.00
2018-03-29T11:03:47.731Z,17.23
2018-03-29T11:06:15.204Z,17.63
2018-03-29T11:08:42.682Z,18.00
2018-03-29T11:11:11.153Z,15.67
2018-03-29T11:13:38.646Z,16.17
2018-03-29T11:16:06.119Z,14.27
2018-03-29T11:18:33.591Z,16.00
2018-03-29T11:21:01.543Z,15.13
2018-03-29T11:23:29.027Z,14.10
2018-03-29T11:25:57.268Z,14.57
2018-03-29T11:28:24.763Z,15.63
2018-03-29T11:30:52.219Z,14.20
2018-03-29T11:33:20.496Z,14.00
2018-03-29T11:35:48.736Z,14.63
2018-03-29T11:38:16.216Z,15.93
2018-03-29T11:40:43.697Z,14.33
2018-03-29T11:43:11.949Z,14.90
2018-03-29T11:45:39.406Z,16.63
2018-03-29T11:48:06.880Z,14.40
2018-03-29T11:50:35.219Z,16.90
2018-03-29T11:53:02.711Z,16.60
2018-03-29T11:55:30.224Z,16.00
2018-03-29T11:57:58.408Z,14.80
2018-03-29T12:00:25.887Z,15.27
2018-03-29T12:02:53.408Z,16.80
2018-03-29T12:05:20.891Z,16.57
2018-03-29T12:07:48.738Z,16.53
2018-03-29T12:10:16.201Z,17.27
2018-03-29T12:12:43.681Z,16.57
2018-03-29T12:15:11.208Z,16.50
2018-03-29T12:17:38.640Z,18.03
2018-03-29T12:20:06.887Z,15.27
2018-03-29T12:22:34.362Z,16.50
2018-03-29T12:25:01.836Z,16.27
2018-03-29T12:27:30.085Z,16.20
2018-03-29T12:29:57.567Z,14.77
2018-03-29T12:32:25.804Z,18.50
2018-03-29T12:34:53.640Z,15.60
2018-03-29T12:37:21.109Z,15.57
2018-03-29T12:39:48.579Z,17.00
2018-03-29T12:42:16.050Z,15.60
2018-03-29T12:44:43.536Z,15.57
2018-03-29T12:47:11.004Z,15.83
2018-03-29T12:49:39.259Z,16.77
2018-03-29T12:52:06.728Z,15.83
2018-03-29T12:54:45.971Z,16.50
2018-03-29T12:57:26.065Z,15.07
2018-03-29T12:59:53.539Z,16.57
2018-03-29T13:02:21.011Z,16.23
2018-03-29T13:04:48.501Z,16.00
2018-03-29T13:07:16.740Z,17.00
2018-03-29T13:09:44.225Z,15.40
2018-03-29T13:12:11.716Z,16.23
2018-03-29T13:14:39.210Z,18.97
2018-03-29T13:17:06.676Z,19.10
2018-03-29T13:19:34.154Z,20.73
2018-03-29T13:22:01.630Z,20.97
2018-03-29T13:24:29.875Z,21.07
2018-03-29T13:26:57.351Z,19.70
2018-03-29T13:29:24.827Z,20.03
2018-03-29T13:31:53.086Z,18.57
2018-03-29T13:34:21.344Z,17.87
2018-03-29T13:36:48.821Z,18.73
2018-03-29T13:39:16.287Z,17.67
2018-03-29T13:41:45.355Z,15.50
2018-03-29T13:44:12.855Z,15.20
2018-03-29T13:46:41.092Z,11.73
2018-03-29T13:49:08.572Z,12.37
2018-03-29T13:51:36.044Z,12.63
2018-03-29T13:54:04.288Z,9.70
2018-03-29T13:56:31.779Z,7.93
2018-03-29T13:59:00.035Z,7.40
2018-03-29T14:01:27.505Z,8.53
2018-03-29T14:03:54.975Z,9.93
2018-03-29T14:06:23.214Z,8.40
2018-03-29T14:08:50.702Z,10.20
2018-03-29T14:11:18.950Z,10.63
2018-03-29T14:13:46.432Z,12.17
2018-03-29T14:16:13.907Z,12.90
2018-03-29T14:18:42.151Z,15.13
2018-03-29T14:21:09.634Z,15.47
2018-03-29T14:23:37.934Z,14.40
2018-03-29T14:26:05.351Z,13.37
2018-03-29T14:28:32.815Z,13.53
2018-03-29T14:31:00.295Z,15.43
2018-03-29T14:33:27.768Z,14.27
2018-03-29T14:35:55.245Z,13.47
2018-03-29T14:38:22.751Z,14.67
2018-03-29T14:40:50.227Z,14.93
2018-03-29T14:43:17.698Z,14.40
2018-03-29T14:45:45.192Z,15.80
2018-03-29T14:48:12.664Z,14.03
2018-03-29T14:50:40.134Z,12.90
2018-03-29T14:53:07.606Z,14.40
2018-03-29T14:55:35.849Z,14.27
2018-03-29T14:58:03.314Z,15.63
2018-03-29T15:00:30.805Z,15.77
2018-03-29T15:02:59.041Z,12.93
2018-03-29T15:05:26.516Z,14.50
2018-03-29T15:07:53.979Z,14.03
2018-03-29T15:10:21.461Z,14.87
2018-03-29T15:12:49.691Z,14.70
2018-03-29T15:15:17.166Z,12.50
2018-03-29T15:17:44.640Z,10.47
2018-03-29T15:20:12.888Z,10.40
2018-03-29T15:22:40.360Z,11.20
2018-03-29T15:25:07.831Z,9.63
2018-03-29T15:27:35.297Z,10.23
2018-03-29T15:30:03.542Z,11.77
2018-03-29T15:32:31.033Z,9.27
2018-03-29T15:34:59.280Z,10.10
2018-03-29T15:37:33.327Z,9.80
2018-03-29T15:40:01.567Z,9.80
2018-03-29T15:42:29.026Z,10.37
2018-03-29T15:44:56.495Z,11.40
2018-03-29T15:47:23.960Z,11.37
2018-03-29T15:49:51.461Z,13.23
2018-03-29T15:52:18.955Z,12.70
2018-03-29T15:54:46.448Z,12.60
2018-03-29T15:57:14.684Z,13.37
2018-03-29T15:59:42.155Z,14.53
2018-03-29T16:02:09.623Z,16.07
2018-03-29T16:04:37.103Z,14.93
2018-03-29T16:07:05.347Z,15.50
2018-03-29T16:09:32.827Z,17.00
2018-03-29T16:12:00.308Z,16.63
2018-03-29T16:14:28.531Z,17.03
2018-03-29T16:16:56.029Z,16.30
2018-03-29T16:19:24.271Z,15.50
2018-03-29T16:21:51.751Z,16.10
2018-03-29T16:24:19.252Z,15.60
2018-03-29T16:26:47.472Z,15.27
2018-03-29T16:29:14.944Z,16.73
2018-03-29T16:31:42.422Z,15.60
2018-03-29T16:34:10.675Z,16.47
2018-03-29T16:36:38.154Z,15.27
2018-03-29T16:39:06.387Z,16.50
2018-03-29T16:41:33.882Z,17.13
2018-03-29T16:44:01.349Z,17.80
2018-03-29T16:46:29.591Z,15.43
2018-03-29T16:48:57.070Z,15.07
2018-03-29T16:51:24.547Z,17.07
2018-03-29T16:53:52.778Z,16.10
2018-03-29T16:56:20.266Z,15.93
2018-03-29T16:58:47.740Z,16.93
2018-03-29T17:01:15.983Z,17.70
2018-03-29T17:03:44.264Z,19.03
2018-03-29T17:06:11.732Z,16.77
2018-03-29T17:08:39.195Z,18.83
2018-03-29T17:11:07.474Z,18.57
2018-03-29T17:13:44.342Z,11.53
2018-03-29T17:16:11.818Z,12.90
2018-03-29T17:18:40.064Z,12.53
2018-03-29T17:21:07.542Z,12.90
2018-03-29T17:23:35.775Z,12.20
2018-03-29T17:26:03.256Z,12.93
2018-03-29T17:28:30.737Z,12.80
2018-03-29T17:30:58.240Z,13.13
2018-03-29T17:33:25.728Z,12.50
2018-03-29T17:35:58.008Z,12.67
2018-03-29T17:38:25.476Z,14.07
2018-03-29T17:40:52.989Z,12.83
2018-03-29T17:43:20.463Z,13.27
2018-03-29T17:45:47.947Z,13.03
2018-03-29T17:48:15.481Z,13.97
2018-03-29T17:50:43.663Z,12.87
2018-03-29T17:53:11.154Z,14.53
2018-03-29T17:55:38.645Z,14.30
2018-03-29T17:58:06.136Z,16.20
2018-03-29T18:00:33.623Z,14.77
2018-03-29T18:03:01.150Z,12.97
2018-03-29T18:05:28.590Z,13.43
2018-03-29T18:07:56.072Z,11.63
2018-03-29T18:10:23.563Z,11.80
2018-03-29T18:12:51.789Z,11.67
2018-03-29T18:15:19.289Z,10.13
2018-03-29T18:17:46.772Z,10.17
2018-03-29T18:20:15.004Z,11.03
2018-03-29T18:22:42.526Z,8.70
2018-03-29T18:25:10.008Z,9.63
2018-03-29T18:27:38.260Z,8.87
2018-03-29T18:30:05.718Z,7.40
2018-03-29T18:32:33.196Z,9.60
2018-03-29T18:35:00.663Z,8.70
2018-03-29T18:37:28.175Z,8.87
2018-03-29T18:39:56.399Z,8.17
2018-03-29T18:42:23.880Z,7.20
2018-03-29T18:44:51.351Z,7.50
2018-03-29T18:47:19.586Z,8.93
2018-03-29T18:49:47.060Z,9.43
2018-03-29T18:52:14.536Z,8.63
2018-03-29T18:54:42.008Z,8.50
2018-03-29T18:57:10.256Z,7.87
2018-03-29T18:59:37.731Z,9.83
2018-03-29T19:02:05.212Z,10.37
2018-03-29T19:04:33.456Z,11.10
2018-03-29T19:07:00.931Z,11.50
2018-03-29T19:09:29.189Z,12.83
2018-03-29T19:11:56.658Z,12.23
2018-03-29T19:14:24.145Z,14.13
2018-03-29T19:16:52.387Z,12.03
2018-03-29T19:19:19.861Z,13.37
2018-03-29T19:21:48.115Z,12.83
2018-03-29T19:24:15.604Z,13.17
2018-03-29T19:26:43.854Z,13.10
2018-03-29T19:29:11.347Z,13.93
2018-03-29T19:31:39.602Z,12.17
2018-03-29T19:34:07.067Z,12.60
2018-03-29T19:36:34.575Z,12.33
2018-03-29T19:39:06.493Z,11.37
2018-03-29T19:41:34.736Z,11.40
2018-03-29T19:44:02.210Z,11.63
2018-03-29T19:46:29.724Z,11.27
2018-03-29T19:48:57.239Z,13.10
2018-03-29T19:51:24.679Z,11.37
2018-03-29T19:53:52.151Z,11.27
2018-03-29T19:56:20.420Z,12.33
2018-03-29T19:58:47.888Z,12.00
2018-03-29T20:01:15.386Z,11.10
2018-03-29T20:03:43.098Z,10.07
2018-03-29T20:06:10.572Z,11.00
2018-03-29T20:08:38.821Z,11.27
2018-03-29T20:11:06.304Z,12.23
2018-03-29T20:13:33.772Z,12.57
2018-03-29T20:16:02.013Z,12.60
2018-03-29T20:18:30.311Z,12.83
2018-03-29T20:20:57.790Z,12.43
2018-03-29T20:23:26.027Z,12.00
2018-03-29T20:25:53.509Z,12.03
2018-03-29T20:28:21.760Z,13.53
2018-03-29T20:30:49.229Z,13.40
2018-03-29T20:33:16.699Z,12.67
2018-03-29T20:35:44.177Z,14.70
2018-03-29T20:38:13.342Z,12.83
2018-03-29T20:40:40.803Z,12.13
2018-03-29T20:43:08.284Z,13.53
2018-03-29T20:45:36.530Z,13.60
2018-03-29T20:48:04.011Z,11.97
2018-03-29T20:50:32.305Z,13.00
2018-03-29T20:53:00.568Z,14.40
2018-03-29T20:55:28.807Z,13.03
2018-03-29T20:57:56.295Z,13.97
2018-03-29T21:00:23.756Z,13.40
2018-03-29T21:02:51.998Z,12.60
2018-03-29T21:05:19.479Z,13.30
2018-03-29T21:07:46.957Z,13.20
2018-03-29T21:10:15.200Z,12.47
2018-03-29T21:12:42.671Z,14.20
2018-03-29T21:15:10.147Z,13.27
2018-03-29T21:17:38.388Z,12.53
2018-03-29T21:20:05.850Z,14.37
2018-03-29T21:22:33.327Z,14.27
2018-03-29T21:25:00.797Z,13.67
2018-03-29T21:27:29.038Z,13.70
2018-03-29T21:29:56.511Z,14.93
2018-03-29T21:32:24.019Z,14.50
2018-03-29T21:34:52.235Z,14.60
2018-03-29T21:37:19.719Z,14.90
2018-03-29T21:39:47.970Z,13.90
2018-03-29T21:42:15.463Z,14.50
2018-03-29T21:44:43.699Z,13.13
2018-03-29T21:47:11.183Z,13.50
2018-03-29T21:49:38.661Z,15.33
2018-03-29T21:52:06.143Z,13.60
2018-03-29T21:54:33.604Z,14.20
2018-03-29T21:57:01.088Z,13.83
2018-03-29T21:59:28.568Z,13.60
2018-03-29T22:01:56.039Z,14.47
2018-03-29T22:04:24.278Z,13.80
2018-03-29T22:06:51.745Z,13.17
2018-03-29T22:09:19.216Z,15.13
2018-03-29T22:11:46.699Z,15.07
2018-03-29T22:14:14.940Z,15.40
2018-03-29T22:16:42.418Z,16.60
2018-03-29T22:19:09.895Z,17.50
2018-03-29T22:21:38.136Z,16.87
2018-03-29T22:24:05.620Z,19.93
2018-03-29T22:26:33.866Z,18.67
2018-03-29T22:29:01.339Z,16.77
2018-03-29T22:31:28.802Z,16.13
2018-03-29T22:33:56.280Z,17.40
2018-03-29T22:36:24.514Z,18.30
2018-03-29T22:38:51.991Z,16.03
2018-03-29T22:41:19.463Z,16.13
2018-03-29T22:43:47.711Z,15.77
2018-03-29T22:46:15.175Z,16.03
2018-03-29T22:48:42.655Z,14.17
2018-03-29T22:51:10.934Z,15.30
2018-03-29T22:53:38.376Z,14.63
2018-03-29T22:56:05.846Z,15.40
2018-03-29T22:58:34.098Z,14.40
2018-03-29T23:01:01.568Z,14.10
2018-03-29T23:03:29.043Z,13.40
2018-03-29T23:05:57.279Z,15.40
2018-03-29T23:08:24.746Z,13.30
2018-03-29T23:10:52.220Z,14.80
2018-03-29T23:13:19.698Z,16.70
2018-03-29T23:15:47.934Z,15.10
2018-03-29T23:18:15.419Z,15.00
2018-03-29T23:20:43.674Z,14.50
2018-03-29T23:23:11.160Z,15.10
2018-03-29T23:25:39.399Z,14.43
2018-03-29T23:28:06.871Z,14.53
2018-03-29T23:30:34.348Z,14.50
2018-03-29T23:33:02.590Z,17.73
2018-03-29T23:35:30.071Z,15.63
2018-03-29T23:37:57.551Z,14.63
2018-03-29T23:40:25.779Z,14.30
2018-03-29T23:42:53.255Z,13.70
2018-03-29T23:45:20.714Z,13.53
2018-03-29T23:47:48.194Z,14.50
2018-03-29T23:50:16.427Z,13.27
2018-03-29T23:52:43.903Z,14.80
2018-03-29T23:55:11.392Z,14.03
2018-03-29T23:57:39.631Z,12.97
